<?xml version='1.0' encoding='UTF-8'?>
<gpx xmlns="http://www.topografix.com/GPX/1/1" creator="www.balnam.be" version="1.1" xmlns:xsi="http://www.w3.org/2001/XMLSchema-instance" xsi:schemaLocation="http://www.topografix.com/GPX/1/1 http://www.topografix.com/GPX/1/1/gpx.xsd">
<trk>
<name>nvssg52</name>
<cmt>v</cmt>
<desc>Sugny Chemin n°52 </desc>
<link href="https://chemins.be/sugny/chemin/52"/><trkseg>
<trkpt lat="49.811022" lon="4.868151"><time>2026-05-02T22:38:19Z</time></trkpt>
<trkpt lat="49.810872" lon="4.868111"><time>2026-05-02T22:48:19Z</time></trkpt>
<trkpt lat="49.810802" lon="4.867281"><time>2026-05-02T22:58:19Z</time></trkpt>
<trkpt lat="49.810432" lon="4.866511"><time>2026-05-02T23:08:19Z</time></trkpt>
<trkpt lat="49.809722" lon="4.866000"><time>2026-05-02T23:18:19Z</time></trkpt>
<trkpt lat="49.809042" lon="4.865780"><time>2026-05-02T23:28:19Z</time></trkpt>
<trkpt lat="49.808332" lon="4.865120"><time>2026-05-02T23:38:19Z</time></trkpt>
<trkpt lat="49.808142" lon="4.865080"><time>2026-05-02T23:48:19Z</time></trkpt>
<trkpt lat="49.807942" lon="4.865480"><time>2026-05-02T23:58:19Z</time></trkpt>
<trkpt lat="49.807312" lon="4.866031"><time>2026-05-03T00:08:19Z</time></trkpt>
<trkpt lat="49.806097" lon="4.867928"><time>2026-05-03T00:18:19Z</time></trkpt>
<trkpt lat="49.805520" lon="4.868568"><time>2026-05-03T00:28:19Z</time></trkpt>
<trkpt lat="49.804952" lon="4.868591"><time>2026-05-03T00:38:19Z</time></trkpt>
<trkpt lat="49.802642" lon="4.868471"><time>2026-05-03T00:48:19Z</time></trkpt>
<trkpt lat="49.801662" lon="4.867541"><time>2026-05-03T00:58:19Z</time></trkpt>
<trkpt lat="49.801402" lon="4.867381"><time>2026-05-03T01:08:19Z</time></trkpt>
<trkpt lat="49.800318" lon="4.867843"><time>2026-05-03T01:18:19Z</time></trkpt>
<trkpt lat="49.799653" lon="4.867231"><time>2026-05-03T01:28:19Z</time></trkpt>
<trkpt lat="49.799265" lon="4.866663"><time>2026-05-03T01:38:19Z</time></trkpt>
<trkpt lat="49.798998" lon="4.865520"><time>2026-05-03T01:48:19Z</time></trkpt>
<trkpt lat="49.799062" lon="4.862200"><time>2026-05-03T01:58:19Z</time></trkpt>
<trkpt lat="49.798872" lon="4.861480"><time>2026-05-03T02:08:19Z</time></trkpt>
<trkpt lat="49.798292" lon="4.860650"><time>2026-05-03T02:18:19Z</time></trkpt>
<trkpt lat="49.797152" lon="4.859790"><time>2026-05-03T02:28:19Z</time></trkpt>
<trkpt lat="49.796682" lon="4.859050"><time>2026-05-03T02:38:19Z</time></trkpt>
</trkseg>
</trk>
</gpx>